createdAt,value
2017-07-29T00:02:26.648Z,19.12
2017-07-29T00:04:54.245Z,19.09
2017-07-29T00:07:21.865Z,19.08
2017-07-29T00:09:49.458Z,19.11
2017-07-29T00:12:17.083Z,19.14
2017-07-29T00:14:44.714Z,19.13
2017-07-29T00:17:12.318Z,19.13
2017-07-29T00:19:39.947Z,19.08
2017-07-29T00:22:07.575Z,18.92
2017-07-29T00:24:35.159Z,18.92
2017-07-29T00:27:02.806Z,18.94
2017-07-29T00:29:30.411Z,18.95
2017-07-29T00:31:58.038Z,18.95
2017-07-29T00:34:25.631Z,18.99
2017-07-29T00:36:53.283Z,18.92
2017-07-29T00:39:20.870Z,18.88
2017-07-29T00:41:48.462Z,18.91
2017-07-29T00:44:16.077Z,18.92
2017-07-29T00:46:43.686Z,18.99
2017-07-29T00:49:11.311Z,19.05
2017-07-29T00:51:38.921Z,19.01
2017-07-29T00:54:06.602Z,19.02
2017-07-29T00:56:34.194Z,19.00
2017-07-29T00:59:01.823Z,18.96
2017-07-29T01:01:29.422Z,18.94
2017-07-29T01:03:57.046Z,18.99
2017-07-29T01:06:24.648Z,19.04
2017-07-29T01:08:52.274Z,19.03
2017-07-29T01:11:19.867Z,19.07
2017-07-29T01:13:47.532Z,19.07
2017-07-29T01:16:15.129Z,19.07
2017-07-29T01:18:42.734Z,19.06
2017-07-29T01:21:10.479Z,19.05
2017-07-29T01:23:38.067Z,19.01
2017-07-29T01:26:05.694Z,19.04
2017-07-29T01:28:33.336Z,19.03
2017-07-29T01:31:00.990Z,19.08
2017-07-29T01:33:28.652Z,19.10
2017-07-29T01:35:56.255Z,19.15
2017-07-29T01:38:23.886Z,19.19
2017-07-29T01:40:51.494Z,19.26
2017-07-29T01:43:19.125Z,19.28
2017-07-29T01:45:46.746Z,19.31
2017-07-29T01:48:14.358Z,19.34
2017-07-29T01:50:41.938Z,19.34
2017-07-29T01:53:09.550Z,19.38
2017-07-29T01:55:37.150Z,19.41
2017-07-29T01:58:04.775Z,19.46
2017-07-29T02:00:32.381Z,19.45
2017-07-29T02:03:00.030Z,19.53
2017-07-29T02:05:27.614Z,19.56
2017-07-29T02:07:55.247Z,19.56
2017-07-29T02:10:22.866Z,19.60
2017-07-29T02:12:50.454Z,19.60
2017-07-29T02:15:18.090Z,19.61
2017-07-29T02:17:45.704Z,19.65
2017-07-29T02:20:13.338Z,19.67
2017-07-29T02:22:40.936Z,19.69
2017-07-29T02:25:08.571Z,19.67
2017-07-29T02:27:36.209Z,19.67
2017-07-29T02:30:03.878Z,19.71
2017-07-29T02:32:31.471Z,19.72
2017-07-29T02:34:59.063Z,19.74
2017-07-29T02:37:26.690Z,19.75
2017-07-29T02:39:54.313Z,19.75
2017-07-29T02:42:21.915Z,19.71
2017-07-29T02:44:49.550Z,19.71
2017-07-29T02:47:17.150Z,19.72
2017-07-29T02:49:44.747Z,19.69
2017-07-29T02:52:12.375Z,19.66
2017-07-29T02:54:39.974Z,19.66
2017-07-29T02:57:07.714Z,19.68
2017-07-29T02:59:35.308Z,19.68
2017-07-29T03:02:03.574Z,19.69
2017-07-29T03:04:31.165Z,19.69
2017-07-29T03:06:58.794Z,19.74
2017-07-29T03:09:26.422Z,19.78
2017-07-29T03:11:54.058Z,19.78
2017-07-29T03:14:21.666Z,19.79
2017-07-29T03:16:49.298Z,19.78
2017-07-29T03:19:16.907Z,19.77
2017-07-29T03:21:44.526Z,19.78
2017-07-29T03:24:12.119Z,19.79
2017-07-29T03:26:39.747Z,19.77
2017-07-29T03:29:07.346Z,19.78
2017-07-29T03:31:34.974Z,19.81
2017-07-29T03:34:02.592Z,19.81
2017-07-29T03:36:30.224Z,19.79
2017-07-29T03:38:57.813Z,19.79
2017-07-29T03:41:25.450Z,19.80
2017-07-29T03:43:53.056Z,19.82
2017-07-29T03:46:20.898Z,19.83
2017-07-29T03:48:48.490Z,19.80
2017-07-29T03:51:16.082Z,19.81
2017-07-29T03:53:43.742Z,19.80
2017-07-29T03:56:11.346Z,19.77
2017-07-29T03:58:39.066Z,19.78
2017-07-29T04:01:06.658Z,19.79
2017-07-29T04:03:34.294Z,19.80
2017-07-29T04:06:01.890Z,19.83
2017-07-29T04:08:29.521Z,19.84
2017-07-29T04:10:57.198Z,19.85
2017-07-29T04:13:24.833Z,19.84
2017-07-29T04:15:52.414Z,19.86
2017-07-29T04:18:20.049Z,19.87
2017-07-29T04:20:47.650Z,19.87
2017-07-29T04:23:15.289Z,19.87
2017-07-29T04:25:42.891Z,19.87
2017-07-29T04:28:10.562Z,19.86
2017-07-29T04:30:38.156Z,19.89
2017-07-29T04:33:05.782Z,19.89
2017-07-29T04:35:33.427Z,19.90
2017-07-29T04:38:01.048Z,19.92
2017-07-29T04:40:28.722Z,19.92
2017-07-29T04:42:56.342Z,19.96
2017-07-29T04:45:23.934Z,19.98
2017-07-29T04:47:51.539Z,19.98
2017-07-29T04:50:19.183Z,19.99
2017-07-29T04:52:46.813Z,20.01
2017-07-29T04:55:14.459Z,20.03
2017-07-29T04:57:42.046Z,20.03
2017-07-29T05:00:09.666Z,20.03
2017-07-29T05:02:37.258Z,20.05
2017-07-29T05:05:04.876Z,20.05
2017-07-29T05:07:32.474Z,20.08
2017-07-29T05:10:00.092Z,20.09
2017-07-29T05:12:27.695Z,20.09
2017-07-29T05:14:55.389Z,20.10
2017-07-29T05:17:22.982Z,20.13
2017-07-29T05:19:50.616Z,20.14
2017-07-29T05:22:18.195Z,20.16
2017-07-29T05:24:45.811Z,20.19
2017-07-29T05:27:13.406Z,20.19
2017-07-29T05:29:41.030Z,20.19
2017-07-29T05:32:08.634Z,20.22
2017-07-29T05:34:36.250Z,20.20
2017-07-29T05:37:03.940Z,20.22
2017-07-29T05:39:31.574Z,20.26
2017-07-29T05:41:59.226Z,20.30
2017-07-29T05:44:26.822Z,20.31
2017-07-29T05:46:54.446Z,20.36
2017-07-29T05:49:22.038Z,20.40
2017-07-29T05:51:49.662Z,20.40
2017-07-29T05:54:17.333Z,20.38
2017-07-29T05:56:44.929Z,20.42
2017-07-29T05:59:12.564Z,20.45
2017-07-29T06:01:40.163Z,20.48
2017-07-29T06:04:07.785Z,20.50
2017-07-29T06:06:35.381Z,20.54
2017-07-29T06:09:03.010Z,20.54
2017-07-29T06:11:30.618Z,20.52
2017-07-29T06:13:58.249Z,20.53
2017-07-29T06:16:25.890Z,20.56
2017-07-29T06:18:53.497Z,20.56
2017-07-29T06:21:21.113Z,20.58
2017-07-29T06:23:48.730Z,20.65
2017-07-29T06:26:16.323Z,20.68
2017-07-29T06:28:43.954Z,20.71
2017-07-29T06:31:11.556Z,20.71
2017-07-29T06:33:39.195Z,20.71
2017-07-29T06:36:06.802Z,20.70
2017-07-29T06:38:34.497Z,20.68
2017-07-29T06:41:02.122Z,20.72
2017-07-29T06:43:29.738Z,20.77
2017-07-29T06:45:57.369Z,20.78
2017-07-29T06:48:24.966Z,20.80
2017-07-29T06:50:52.590Z,20.80
2017-07-29T06:53:20.181Z,20.83
2017-07-29T06:55:47.815Z,20.87
2017-07-29T06:58:15.425Z,20.97
2017-07-29T07:00:43.059Z,20.99
2017-07-29T07:03:10.668Z,20.99
2017-07-29T07:05:38.295Z,21.01
2017-07-29T07:08:05.940Z,21.01
2017-07-29T07:10:33.546Z,21.07
2017-07-29T07:13:01.187Z,21.17
2017-07-29T07:15:28.815Z,21.22
2017-07-29T07:17:56.491Z,21.28
2017-07-29T07:20:24.087Z,21.31
2017-07-29T07:22:51.710Z,21.32
2017-07-29T07:25:19.314Z,21.34
2017-07-29T07:27:46.929Z,21.35
2017-07-29T07:30:14.694Z,21.41
2017-07-29T07:32:42.339Z,21.48
2017-07-29T07:35:09.935Z,21.52
2017-07-29T07:37:37.549Z,21.57
2017-07-29T07:40:05.159Z,21.59
2017-07-29T07:42:32.811Z,21.68
2017-07-29T07:45:00.412Z,21.70
2017-07-29T07:47:28.017Z,21.70
2017-07-29T07:49:55.641Z,21.72
2017-07-29T07:52:23.278Z,21.77
2017-07-29T07:54:50.875Z,21.82
2017-07-29T07:57:18.472Z,21.84
2017-07-29T07:59:46.090Z,21.87
2017-07-29T08:02:13.727Z,21.84
2017-07-29T08:04:41.342Z,21.90
2017-07-29T08:07:08.956Z,21.96
2017-07-29T08:09:36.581Z,22.03
2017-07-29T08:12:04.182Z,22.05
2017-07-29T08:14:31.801Z,22.00
2017-07-29T08:16:59.418Z,21.99
2017-07-29T08:19:27.064Z,22.05
2017-07-29T08:21:54.678Z,22.16
2017-07-29T08:24:22.314Z,22.19
2017-07-29T08:26:49.908Z,22.37
2017-07-29T08:29:17.530Z,22.39
2017-07-29T08:31:45.131Z,22.37
2017-07-29T08:34:12.859Z,22.38
2017-07-29T08:36:40.452Z,22.40
2017-07-29T08:39:08.054Z,22.45
2017-07-29T08:41:35.658Z,22.53
2017-07-29T08:44:03.282Z,22.62
2017-07-29T08:46:31.082Z,22.62
2017-07-29T08:48:58.699Z,22.73
2017-07-29T08:51:26.354Z,22.84
2017-07-29T08:53:53.985Z,22.91
2017-07-29T08:56:21.635Z,23.01
2017-07-29T08:58:49.268Z,23.10
2017-07-29T09:01:16.860Z,23.15
2017-07-29T09:03:44.490Z,23.18
2017-07-29T09:06:12.212Z,23.12
2017-07-29T09:08:39.854Z,23.14
2017-07-29T09:11:07.463Z,23.05
2017-07-29T09:13:35.133Z,23.09
2017-07-29T09:16:02.722Z,23.04
2017-07-29T09:18:30.344Z,23.09
2017-07-29T09:20:57.962Z,23.12
2017-07-29T09:23:25.584Z,23.15
2017-07-29T09:25:53.186Z,23.23
2017-07-29T09:28:20.822Z,23.37
2017-07-29T09:30:48.462Z,23.31
2017-07-29T09:33:16.118Z,23.26
2017-07-29T09:35:43.826Z,23.31
2017-07-29T09:38:11.456Z,23.34
2017-07-29T09:40:39.051Z,23.30
2017-07-29T09:43:06.677Z,23.28
2017-07-29T09:45:34.284Z,23.36
2017-07-29T09:48:01.934Z,23.42
2017-07-29T09:50:29.712Z,23.42
2017-07-29T09:52:57.460Z,23.49
2017-07-29T09:55:25.166Z,23.57
2017-07-29T09:57:52.818Z,23.81
2017-07-29T10:00:20.412Z,23.89
2017-07-29T10:02:48.031Z,24.09
2017-07-29T10:05:15.690Z,24.19
2017-07-29T10:07:43.290Z,24.25
2017-07-29T10:10:10.946Z,24.25
2017-07-29T10:12:38.560Z,24.34
2017-07-29T10:15:06.207Z,24.56
2017-07-29T10:17:33.820Z,24.50
2017-07-29T10:20:01.432Z,24.28
2017-07-29T10:22:29.034Z,24.31
2017-07-29T10:24:56.702Z,24.46
2017-07-29T10:27:24.301Z,24.47
2017-07-29T10:29:51.947Z,24.67
2017-07-29T10:32:19.540Z,24.90
2017-07-29T10:34:47.208Z,24.94
2017-07-29T10:37:14.839Z,25.05
2017-07-29T10:39:42.475Z,25.11
2017-07-29T10:42:10.089Z,25.32
2017-07-29T10:44:37.734Z,25.46
2017-07-29T10:47:05.338Z,25.36
2017-07-29T10:49:32.994Z,25.67
2017-07-29T10:52:00.600Z,25.87
2017-07-29T10:54:28.218Z,25.55
2017-07-29T10:56:55.930Z,25.20
2017-07-29T10:59:23.533Z,24.88
2017-07-29T11:01:51.276Z,24.68
2017-07-29T11:04:18.879Z,24.60
2017-07-29T11:06:46.510Z,24.59
2017-07-29T11:09:14.102Z,24.73
2017-07-29T11:11:41.730Z,24.86
2017-07-29T11:14:09.343Z,24.85
2017-07-29T11:16:36.974Z,24.97
2017-07-29T11:19:04.564Z,25.03
2017-07-29T11:21:32.198Z,25.01
2017-07-29T11:23:59.802Z,25.11
2017-07-29T11:26:27.465Z,25.08
2017-07-29T11:28:55.069Z,25.02
2017-07-29T11:31:22.720Z,25.13
2017-07-29T11:33:50.347Z,25.17
2017-07-29T11:36:18.026Z,25.12
2017-07-29T11:38:45.633Z,25.00
2017-07-29T11:41:13.256Z,24.91
2017-07-29T11:43:40.874Z,24.86
2017-07-29T11:46:08.511Z,24.85
2017-07-29T11:48:36.107Z,24.86
2017-07-29T11:51:03.830Z,24.92
2017-07-29T11:53:31.417Z,24.95
2017-07-29T11:55:59.034Z,24.98
2017-07-29T11:58:26.717Z,25.06
2017-07-29T12:00:54.319Z,25.08
2017-07-29T12:03:21.958Z,25.27
2017-07-29T12:05:49.583Z,25.50
2017-07-29T12:08:17.312Z,25.56
2017-07-29T12:10:44.919Z,25.72
2017-07-29T12:13:12.538Z,25.95
2017-07-29T12:15:40.138Z,25.99
2017-07-29T12:18:07.772Z,25.95
2017-07-29T12:20:35.372Z,25.89
2017-07-29T12:23:02.992Z,25.82
2017-07-29T12:25:30.593Z,25.62
2017-07-29T12:27:58.222Z,25.50
2017-07-29T12:30:25.896Z,25.35
2017-07-29T12:32:53.573Z,25.34
2017-07-29T12:35:21.193Z,25.41
2017-07-29T12:37:48.830Z,25.43
2017-07-29T12:40:16.422Z,25.41
2017-07-29T12:42:44.050Z,25.31
2017-07-29T12:45:11.646Z,25.26
2017-07-29T12:47:39.335Z,25.05
2017-07-29T12:50:06.911Z,24.83
2017-07-29T12:52:34.562Z,24.76
2017-07-29T12:55:02.171Z,24.70
2017-07-29T12:57:29.862Z,24.65
2017-07-29T12:59:57.462Z,24.70
2017-07-29T13:02:25.113Z,24.68
2017-07-29T13:04:52.707Z,24.68
2017-07-29T13:07:20.334Z,24.69
2017-07-29T13:09:47.941Z,24.66
2017-07-29T13:12:15.578Z,24.62
2017-07-29T13:14:43.201Z,24.53
2017-07-29T13:17:10.838Z,24.53
2017-07-29T13:19:38.440Z,24.54
2017-07-29T13:22:06.062Z,24.46
2017-07-29T13:24:33.685Z,24.50
2017-07-29T13:27:01.313Z,24.50
2017-07-29T13:29:28.940Z,24.53
2017-07-29T13:31:56.538Z,24.59
2017-07-29T13:34:24.160Z,24.71
2017-07-29T13:36:51.783Z,24.92
2017-07-29T13:39:19.382Z,25.21
2017-07-29T13:41:47.018Z,25.48
2017-07-29T13:44:14.627Z,25.94
2017-07-29T13:46:42.221Z,26.71
2017-07-29T13:49:09.863Z,27.29
2017-07-29T13:51:37.478Z,27.12
2017-07-29T13:54:05.129Z,26.89
2017-07-29T13:56:32.739Z,26.45
2017-07-29T13:59:00.368Z,26.27
2017-07-29T14:01:27.975Z,26.34
2017-07-29T14:03:55.638Z,26.28
2017-07-29T14:06:23.239Z,26.17
2017-07-29T14:08:50.854Z,26.14
2017-07-29T14:11:18.498Z,26.17
2017-07-29T14:13:46.155Z,26.62
2017-07-29T14:16:13.793Z,27.59
2017-07-29T14:18:41.449Z,27.89
2017-07-29T14:21:09.042Z,27.66
2017-07-29T14:23:36.643Z,27.41
2017-07-29T14:26:04.279Z,27.08
2017-07-29T14:28:31.909Z,26.90
2017-07-29T14:30:59.660Z,26.98
2017-07-29T14:33:27.271Z,26.88
2017-07-29T14:35:55.137Z,26.83
2017-07-29T14:38:22.767Z,26.75
2017-07-29T14:40:50.374Z,26.57
2017-07-29T14:43:17.986Z,26.50
2017-07-29T14:45:45.679Z,26.46
2017-07-29T14:48:30.710Z,26.49
2017-07-29T14:50:58.344Z,26.41
2017-07-29T14:53:25.994Z,26.44
2017-07-29T14:55:53.614Z,26.83
2017-07-29T14:58:21.233Z,27.08
2017-07-29T15:00:48.867Z,27.05
2017-07-29T15:03:16.471Z,27.23
2017-07-29T15:05:44.099Z,27.54
2017-07-29T15:08:11.700Z,28.16
2017-07-29T15:10:39.339Z,28.20
2017-07-29T15:13:06.948Z,28.18
2017-07-29T15:15:34.582Z,28.79
2017-07-29T15:18:02.186Z,29.06
2017-07-29T15:20:29.767Z,29.23
2017-07-29T15:22:57.387Z,29.12
2017-07-29T15:25:25.015Z,28.99
2017-07-29T15:27:52.648Z,28.93
2017-07-29T15:30:20.222Z,29.07
2017-07-29T15:32:47.982Z,29.57
2017-07-29T15:35:15.595Z,29.85
2017-07-29T15:37:43.252Z,30.07
2017-07-29T15:40:10.871Z,30.25
2017-07-29T15:42:38.695Z,30.53
2017-07-29T15:45:06.287Z,30.78
2017-07-29T15:47:33.911Z,30.85
2017-07-29T15:50:01.518Z,30.71
2017-07-29T15:52:29.154Z,30.86
2017-07-29T15:54:56.747Z,30.86
2017-07-29T15:57:24.400Z,30.78
2017-07-29T15:59:51.994Z,30.85
2017-07-29T16:02:19.778Z,30.47
2017-07-29T16:04:47.389Z,30.00
2017-07-29T16:07:15.026Z,29.55
2017-07-29T16:09:42.651Z,29.46
2017-07-29T16:12:10.292Z,29.62
2017-07-29T16:14:37.910Z,29.73
2017-07-29T16:17:05.574Z,30.07
2017-07-29T16:19:33.188Z,30.55
2017-07-29T16:22:00.823Z,30.53
2017-07-29T16:24:28.483Z,30.65
2017-07-29T16:26:57.850Z,30.34
2017-07-29T16:29:25.490Z,29.83
2017-07-29T16:31:53.226Z,29.53
2017-07-29T16:34:20.842Z,30.06
2017-07-29T16:36:48.457Z,30.58
2017-07-29T16:39:16.087Z,30.58
2017-07-29T16:41:43.722Z,29.84
2017-07-29T16:44:11.375Z,29.28
2017-07-29T16:46:39.000Z,28.95
2017-07-29T16:49:06.640Z,29.01
2017-07-29T16:51:34.281Z,29.27
2017-07-29T16:54:01.899Z,29.64
2017-07-29T16:56:29.529Z,29.72
2017-07-29T16:58:57.162Z,30.05
2017-07-29T17:01:24.780Z,29.89
2017-07-29T17:03:52.422Z,29.75
2017-07-29T17:06:20.018Z,29.29
2017-07-29T17:08:47.694Z,28.90
2017-07-29T17:11:15.298Z,28.83
2017-07-29T17:13:42.939Z,28.98
2017-07-29T17:16:10.547Z,29.38
2017-07-29T17:18:38.179Z,29.56
2017-07-29T17:21:05.814Z,29.40
2017-07-29T17:23:33.492Z,29.24
2017-07-29T17:26:01.091Z,28.99
2017-07-29T17:28:28.732Z,28.75
2017-07-29T17:30:56.339Z,28.93
2017-07-29T17:33:23.986Z,28.82
2017-07-29T17:35:51.598Z,28.85
2017-07-29T17:38:19.233Z,29.18
2017-07-29T17:40:46.838Z,29.30
2017-07-29T17:43:14.467Z,29.64
2017-07-29T17:45:42.062Z,29.94
2017-07-29T17:48:09.754Z,29.85
2017-07-29T17:50:37.346Z,29.73
2017-07-29T17:53:04.977Z,29.55
2017-07-29T17:55:32.597Z,29.42
2017-07-29T17:58:00.257Z,29.46
2017-07-29T18:00:27.868Z,29.11
2017-07-29T18:02:55.564Z,28.96
2017-07-29T18:05:23.182Z,28.75
2017-07-29T18:07:50.840Z,28.57
2017-07-29T18:10:18.461Z,28.51
2017-07-29T18:12:46.064Z,28.43
2017-07-29T18:15:13.700Z,28.27
2017-07-29T18:17:41.354Z,28.39
2017-07-29T18:20:08.959Z,28.61
2017-07-29T18:22:36.553Z,28.61
2017-07-29T18:25:04.186Z,28.53
2017-07-29T18:27:31.831Z,28.41
2017-07-29T18:29:59.446Z,28.37
2017-07-29T18:32:27.060Z,28.35
2017-07-29T18:34:54.670Z,28.22
2017-07-29T18:37:22.316Z,28.16
2017-07-29T18:39:49.914Z,28.06
2017-07-29T18:42:17.594Z,27.91
2017-07-29T18:44:45.209Z,27.82
2017-07-29T18:47:12.850Z,27.73
2017-07-29T18:49:40.460Z,27.63
2017-07-29T18:52:08.118Z,27.57
2017-07-29T18:54:35.783Z,27.52
2017-07-29T18:57:03.523Z,27.48
2017-07-29T18:59:31.150Z,27.51
2017-07-29T19:01:58.762Z,27.50
2017-07-29T19:04:26.386Z,27.46
2017-07-29T19:06:54.002Z,27.39
2017-07-29T19:09:21.669Z,27.34
2017-07-29T19:11:49.349Z,27.31
2017-07-29T19:14:17.016Z,27.31
2017-07-29T19:16:45.049Z,27.30
2017-07-29T19:19:13.908Z,27.26
2017-07-29T19:21:41.590Z,27.20
2017-07-29T19:24:09.251Z,27.15
2017-07-29T19:26:36.843Z,27.16
2017-07-29T19:29:04.478Z,27.16
2017-07-29T19:31:32.114Z,27.11
2017-07-29T19:33:59.763Z,27.11
2017-07-29T19:36:27.458Z,27.06
2017-07-29T19:38:55.065Z,27.06
2017-07-29T19:41:22.710Z,27.06
2017-07-29T19:43:50.374Z,27.02
2017-07-29T19:46:17.995Z,26.96
2017-07-29T19:48:45.610Z,26.93
2017-07-29T19:51:13.395Z,26.89
2017-07-29T19:53:41.207Z,26.85
2017-07-29T19:56:08.896Z,26.81
2017-07-29T19:58:36.493Z,26.74
2017-07-29T20:01:04.139Z,26.68
2017-07-29T20:03:31.737Z,26.67
2017-07-29T20:05:59.392Z,26.68
2017-07-29T20:08:26.972Z,26.68
2017-07-29T20:10:54.586Z,26.68
2017-07-29T20:13:22.239Z,26.66
2017-07-29T20:15:49.902Z,26.59
2017-07-29T20:18:17.504Z,26.57
2017-07-29T20:20:45.097Z,26.52
2017-07-29T20:23:12.755Z,26.47
2017-07-29T20:25:40.386Z,26.45
2017-07-29T20:28:07.990Z,26.47
2017-07-29T20:30:35.639Z,26.42
2017-07-29T20:33:03.248Z,26.40
2017-07-29T20:35:30.925Z,26.40
2017-07-29T20:37:58.527Z,26.39
2017-07-29T20:40:26.146Z,26.36
2017-07-29T20:42:53.798Z,26.35
2017-07-29T20:45:21.474Z,26.29
2017-07-29T20:47:49.145Z,26.23
2017-07-29T20:50:16.795Z,26.26
2017-07-29T20:52:44.471Z,26.21
2017-07-29T20:55:12.070Z,26.18
2017-07-29T20:57:39.694Z,26.18
2017-07-29T21:00:07.297Z,26.19
2017-07-29T21:02:34.939Z,26.12
2017-07-29T21:05:02.540Z,26.11
2017-07-29T21:07:30.182Z,26.15
2017-07-29T21:09:57.782Z,26.16
2017-07-29T21:12:25.411Z,26.13
2017-07-29T21:14:53.023Z,26.09
2017-07-29T21:17:20.623Z,26.04
2017-07-29T21:19:48.349Z,26.02
2017-07-29T21:22:15.946Z,26.07
2017-07-29T21:24:43.574Z,26.08
2017-07-29T21:27:11.184Z,26.04
2017-07-29T21:29:38.795Z,25.98
2017-07-29T21:32:06.463Z,25.94
2017-07-29T21:34:34.098Z,25.94
2017-07-29T21:37:01.702Z,25.91
2017-07-29T21:39:29.340Z,25.89
2017-07-29T21:41:56.934Z,25.88
2017-07-29T21:44:24.649Z,25.86
2017-07-29T21:46:52.247Z,25.85
2017-07-29T21:49:19.886Z,25.86
2017-07-29T21:51:47.487Z,25.85
2017-07-29T21:54:15.158Z,25.85
2017-07-29T21:56:42.749Z,25.83
2017-07-29T21:59:10.392Z,25.84
2017-07-29T22:01:37.975Z,25.83
2017-07-29T22:04:05.630Z,25.82
2017-07-29T22:06:33.212Z,25.82
2017-07-29T22:09:00.854Z,25.79
2017-07-29T22:11:28.468Z,25.78
2017-07-29T22:13:56.066Z,25.78
2017-07-29T22:16:23.695Z,25.79
2017-07-29T22:18:51.315Z,25.77
2017-07-29T22:21:19.051Z,25.79
2017-07-29T22:23:46.652Z,25.76
2017-07-29T22:26:14.274Z,25.74
2017-07-29T22:28:41.868Z,25.74
2017-07-29T22:31:09.502Z,25.75
2017-07-29T22:33:37.098Z,25.74
2017-07-29T22:36:04.717Z,25.73
2017-07-29T22:38:32.311Z,25.72
2017-07-29T22:40:59.953Z,25.66
2017-07-29T22:43:27.566Z,25.66
2017-07-29T22:45:55.230Z,25.66
2017-07-29T22:48:22.835Z,25.62
2017-07-29T22:50:50.442Z,25.62
2017-07-29T22:53:18.078Z,25.60
2017-07-29T22:55:45.679Z,25.61
2017-07-29T22:58:13.297Z,25.60
2017-07-29T23:00:40.894Z,25.58
2017-07-29T23:03:08.490Z,25.53
2017-07-29T23:05:36.086Z,25.52
2017-07-29T23:08:03.715Z,25.52
2017-07-29T23:10:31.338Z,25.51
2017-07-29T23:12:58.940Z,25.52
2017-07-29T23:15:26.573Z,25.49
2017-07-29T23:17:54.177Z,25.46
2017-07-29T23:20:21.834Z,25.47
2017-07-29T23:22:49.475Z,25.44
2017-07-29T23:25:17.076Z,25.37
2017-07-29T23:27:44.818Z,25.31
2017-07-29T23:30:12.454Z,25.31
2017-07-29T23:32:40.058Z,25.29
2017-07-29T23:35:07.691Z,25.27
2017-07-29T23:37:35.331Z,25.26
2017-07-29T23:40:02.947Z,25.21
2017-07-29T23:42:30.559Z,25.20
2017-07-29T23:44:58.150Z,25.17
2017-07-29T23:47:25.789Z,25.12
2017-07-29T23:49:53.405Z,25.13
2017-07-29T23:52:21.046Z,25.12
2017-07-29T23:54:48.650Z,25.10
2017-07-29T23:57:16.276Z,25.06
2017-07-29T23:59:43.886Z,25.06
